Aviation Digital Data Service (ADDS)

Output produced by METARs form (0409 UTC 19 August 2019)
found at http://www.aviationweather.gov/metar/data/
 
METAR text: PKWA 190400Z AUTO 20003KT 10SM -RA CLR 29/25 A2976 RMK AO2 T02900251
Conditions at: PKWA (KWAJALEIN/BUCHOL, MH, US) observed 0400 UTC 19 August 2019
Temperature: 29.0°C (84°F)
Dewpoint: 25.1°C (77°F) [RH = 80%]
Pressure (altimeter): 29.76 inches Hg (1007.9 mb)
Winds: from the SSW (200 degrees) at 3 MPH (3 knots; 1.5 m/s)
Visibility: 10 or more miles (16+ km)
Ceiling: at least 12,000 feet AGL
Clouds: sky clear below 12,000 feet AGL
Weather: -RA  (light rain)

METAR text: PKWA 190340Z AUTO 00000KT 10SM CLR 29/25 A2977 RMK AO2 T02900252
Conditions at: PKWA (KWAJALEIN/BUCHOL, MH, US) observed 0340 UTC 19 August 2019
Temperature: 29.0°C (84°F)
Dewpoint: 25.2°C (77°F) [RH = 80%]
Pressure (altimeter): 29.77 inches Hg (1008.2 mb)
Winds: calm
Visibility: 10 or more miles (16+ km)
Ceiling: at least 12,000 feet AGL
Clouds: sky clear below 12,000 feet AGL
Weather: automated observation with no human augmentation;
there may or may not be significant weather present at this time

METAR text: PKWA 190320Z AUTO 00000KT 10SM CLR 29/25 A2977 RMK AO2 T02900253
Conditions at: PKWA (KWAJALEIN/BUCHOL, MH, US) observed 0320 UTC 19 August 2019
Temperature: 29.0°C (84°F)
Dewpoint: 25.3°C (78°F) [RH = 81%]
Pressure (altimeter): 29.77 inches Hg (1008.2 mb)
Winds: calm
Visibility: 10 or more miles (16+ km)
Ceiling: at least 12,000 feet AGL
Clouds: sky clear below 12,000 feet AGL
Weather: automated observation with no human augmentation;
there may or may not be significant weather present at this time

METAR text: PKWA 190300Z AUTO 17003KT 10SM CLR 29/25 A2977 RMK AO2 T02890254
Conditions at: PKWA (KWAJALEIN/BUCHOL, MH, US) observed 0300 UTC 19 August 2019
Temperature: 28.9°C (84°F)
Dewpoint: 25.4°C (78°F) [RH = 81%]
Pressure (altimeter): 29.77 inches Hg (1008.2 mb)
Winds: from the S (170 degrees) at 3 MPH (3 knots; 1.5 m/s)
Visibility: 10 or more miles (16+ km)
Ceiling: at least 12,000 feet AGL
Clouds: sky clear below 12,000 feet AGL
Weather: automated observation with no human augmentation;
there may or may not be significant weather present at this time

METAR text: PKWA 190240Z AUTO 24004KT 10SM CLR 29/25 A2978 RMK AO2 T02880254
Conditions at: PKWA (KWAJALEIN/BUCHOL, MH, US) observed 0240 UTC 19 August 2019
Temperature: 28.8°C (84°F)
Dewpoint: 25.4°C (78°F) [RH = 82%]
Pressure (altimeter): 29.78 inches Hg (1008.5 mb)
Winds: from the WSW (240 degrees) at 5 MPH (4 knots; 2.1 m/s)
Visibility: 10 or more miles (16+ km)
Ceiling: at least 12,000 feet AGL
Clouds: sky clear below 12,000 feet AGL
Weather: automated observation with no human augmentation;
there may or may not be significant weather present at this time

METAR text: PKWA 190220Z AUTO 23005KT 10SM CLR 29/26 A2978 RMK AO2 T02870258
Conditions at: PKWA (KWAJALEIN/BUCHOL, MH, US) observed 0220 UTC 19 August 2019
Temperature: 28.7°C (84°F)
Dewpoint: 25.8°C (78°F) [RH = 84%]
Pressure (altimeter): 29.78 inches Hg (1008.5 mb)
Winds: from the SW (230 degrees) at 6 MPH (5 knots; 2.6 m/s)
Visibility: 10 or more miles (16+ km)
Ceiling: at least 12,000 feet AGL
Clouds: sky clear below 12,000 feet AGL
Weather: automated observation with no human augmentation;
there may or may not be significant weather present at this time

METAR text: PKWA 190200Z AUTO 23007KT 10SM SCT060 SCT070 28/26 A2978 RMK AO2 T02840261
Conditions at: PKWA (KWAJALEIN/BUCHOL, MH, US) observed 0200 UTC 19 August 2019
Temperature: 28.4°C (83°F)
Dewpoint: 26.1°C (79°F) [RH = 87%]
Pressure (altimeter): 29.78 inches Hg (1008.5 mb)
Winds: from the SW (230 degrees) at 8 MPH (7 knots; 3.6 m/s)
Visibility: 10 or more miles (16+ km)
Ceiling: at least 12,000 feet AGL
Clouds: scattered clouds at 6000 feet AGL
scattered clouds at 7000 feet AGL
Weather: automated observation with no human augmentation;
there may or may not be significant weather present at this time

METAR text: PKWA 190140Z AUTO 23007KT 10SM SCT065 BKN070 28/26 A2980 RMK AO2 T02770262
Conditions at: PKWA (KWAJALEIN/BUCHOL, MH, US) observed 0140 UTC 19 August 2019
Temperature: 27.7°C (82°F)
Dewpoint: 26.2°C (79°F) [RH = 92%]
Pressure (altimeter): 29.80 inches Hg (1009.2 mb)
Winds: from the SW (230 degrees) at 8 MPH (7 knots; 3.6 m/s)
Visibility: 10 or more miles (16+ km)
Ceiling: 7000 feet AGL
Clouds: scattered clouds at 6500 feet AGL
broken clouds at 7000 feet AGL
Weather: automated observation with no human augmentation;
there may or may not be significant weather present at this time

METAR text: PKWA 190120Z AUTO 26006KT 10SM SCT039 SCT050 OVC070 27/26 A2981 RMK AO2 T02710263
Conditions at: PKWA (KWAJALEIN/BUCHOL, MH, US) observed 0120 UTC 19 August 2019
Temperature: 27.1°C (81°F)
Dewpoint: 26.3°C (79°F) [RH = 95%]
Pressure (altimeter): 29.81 inches Hg (1009.6 mb)
Winds: from the W (260 degrees) at 7 MPH (6 knots; 3.1 m/s)
Visibility: 10 or more miles (16+ km)
Ceiling: 7000 feet AGL
Clouds: scattered clouds at 3900 feet AGL
scattered clouds at 5000 feet AGL
overcast cloud deck at 7000 feet AGL
Weather: automated observation with no human augmentation;
there may or may not be significant weather present at this time

METAR text: PKWA 190100Z AUTO 28004KT 10SM SCT039 SCT045 BKN055 26/26 A2981 RMK AO2 T02640261
Conditions at: PKWA (KWAJALEIN/BUCHOL, MH, US) observed 0100 UTC 19 August 2019
Temperature: 26.4°C (80°F)
Dewpoint: 26.1°C (79°F) [RH = 98%]
Pressure (altimeter): 29.81 inches Hg (1009.6 mb)
Winds: from the W (280 degrees) at 5 MPH (4 knots; 2.1 m/s)
Visibility: 10 or more miles (16+ km)
Ceiling: 5500 feet AGL
Clouds: scattered clouds at 3900 feet AGL
scattered clouds at 4500 feet AGL
broken clouds at 5500 feet AGL
Weather: automated observation with no human augmentation;
there may or may not be significant weather present at this time

METAR text: PKWA 190040Z AUTO 25005KT 10SM SCT041 SCT048 SCT055 26/26 A2983 RMK AO2 P0002 T02590257
Conditions at: PKWA (KWAJALEIN/BUCHOL, MH, US) observed 0040 UTC 19 August 2019
Temperature: 25.9°C (79°F)
Dewpoint: 25.7°C (78°F) [RH = 99%]
Pressure (altimeter): 29.83 inches Hg (1010.2 mb)
Winds: from the WSW (250 degrees) at 6 MPH (5 knots; 2.6 m/s)
Visibility: 10 or more miles (16+ km)
Ceiling: at least 12,000 feet AGL
Clouds: scattered clouds at 4100 feet AGL
scattered clouds at 4800 feet AGL
scattered clouds at 5500 feet AGL
Weather: automated observation with no human augmentation;
there may or may not be significant weather present at this time

METAR text: PKWA 190020Z AUTO 25004KT 10SM -RA SCT037 SCT046 26/26 A2983 RMK AO2 P0002 T02570256
Conditions at: PKWA (KWAJALEIN/BUCHOL, MH, US) observed 0020 UTC 19 August 2019
Temperature: 25.7°C (78°F)
Dewpoint: 25.6°C (78°F) [RH = 99%]
Pressure (altimeter): 29.83 inches Hg (1010.2 mb)
Winds: from the WSW (250 degrees) at 5 MPH (4 knots; 2.1 m/s)
Visibility: 10 or more miles (16+ km)
Ceiling: at least 12,000 feet AGL
Clouds: scattered clouds at 3700 feet AGL
scattered clouds at 4600 feet AGL
Weather: -RA  (light rain)

METAR text: PKWA 190000Z AUTO 21005KT 7SM SCT021 SCT085 26/25 A2984 RMK AO2 T02570254
Conditions at: PKWA (KWAJALEIN/BUCHOL, MH, US) observed 0000 UTC 19 August 2019
Temperature: 25.7°C (78°F)
Dewpoint: 25.4°C (78°F) [RH = 98%]
Pressure (altimeter): 29.84 inches Hg (1010.6 mb)
Winds: from the SSW (210 degrees) at 6 MPH (5 knots; 2.6 m/s)
Visibility: 7 miles (11 km)
Ceiling: at least 12,000 feet AGL
Clouds: scattered clouds at 2100 feet AGL
scattered clouds at 8500 feet AGL
Weather: automated observation with no human augmentation;
there may or may not be significant weather present at this time

METAR text: PKWA 182340Z AUTO 20005KT 2SM +RA SCT008 BKN017 OVC024 26/25 A2984 RMK AO2 P0076 T02640253
Conditions at: PKWA (KWAJALEIN/BUCHOL, MH, US) observed 2340 UTC 18 August 2019
Temperature: 26.4°C (80°F)
Dewpoint: 25.3°C (78°F) [RH = 94%]
Pressure (altimeter): 29.84 inches Hg (1010.6 mb)
Winds: from the SSW (200 degrees) at 6 MPH (5 knots; 2.6 m/s)
Visibility: 2.00 miles (3.22 km)
Ceiling: 1700 feet AGL
Clouds: scattered clouds at 800 feet AGL
broken clouds at 1700 feet AGL
overcast cloud deck at 2400 feet AGL
Weather: +RA  (heavy rain)

METAR text: PKWA 182320Z AUTO 11009KT 2SM +RA SCT016 OVC024 27/25 A2985 RMK AO2 P0033 T02730253
Conditions at: PKWA (KWAJALEIN/BUCHOL, MH, US) observed 2320 UTC 18 August 2019
Temperature: 27.3°C (81°F)
Dewpoint: 25.3°C (78°F) [RH = 89%]
Pressure (altimeter): 29.85 inches Hg (1010.9 mb)
Winds: from the ESE (110 degrees) at 10 MPH (9 knots; 4.6 m/s)
Visibility: 2.00 miles (3.22 km)
Ceiling: 2400 feet AGL
Clouds: scattered clouds at 1600 feet AGL
overcast cloud deck at 2400 feet AGL
Weather: +RA  (heavy rain)

METAR text: PKWA 182300Z AUTO 09008KT 5SM RA SCT018 BKN027 OVC035 28/25 A2985 RMK AO2 P0001 T02800251
Conditions at: PKWA (KWAJALEIN/BUCHOL, MH, US) observed 2300 UTC 18 August 2019
Temperature: 28.0°C (82°F)
Dewpoint: 25.1°C (77°F) [RH = 84%]
Pressure (altimeter): 29.85 inches Hg (1010.9 mb)
Winds: from the E (90 degrees) at 9 MPH (8 knots; 4.1 m/s)
Visibility: 5 miles ( 8 km)
Ceiling: 2700 feet AGL
Clouds: scattered clouds at 1800 feet AGL
broken clouds at 2700 feet AGL
overcast cloud deck at 3500 feet AGL
Weather: RA  (moderate rain)

METAR text: PKWA 182240Z AUTO 05007KT 2SM -RA SCT010 BKN016 OVC023 29/25 A2984 RMK AO2 VIS 1 1/4V5 P0022 T02850249
Conditions at: PKWA (KWAJALEIN/BUCHOL, MH, US) observed 2240 UTC 18 August 2019
Temperature: 28.5°C (83°F)
Dewpoint: 24.9°C (77°F) [RH = 81%]
Pressure (altimeter): 29.84 inches Hg (1010.6 mb)
Winds: from the NE (50 degrees) at 8 MPH (7 knots; 3.6 m/s)
Visibility: 2.00 miles (3.22 km)
Ceiling: 1600 feet AGL
Clouds: scattered clouds at 1000 feet AGL
broken clouds at 1600 feet AGL
overcast cloud deck at 2300 feet AGL
Weather: -RA  (light rain)

METAR text: PKWA 182220Z AUTO 07016KT 10SM SCT023 SCT033 BKN041 29/25 A2984 RMK AO2 T02910247
Conditions at: PKWA (KWAJALEIN/BUCHOL, MH, US) observed 2220 UTC 18 August 2019
Temperature: 29.1°C (84°F)
Dewpoint: 24.7°C (76°F) [RH = 77%]
Pressure (altimeter): 29.84 inches Hg (1010.6 mb)
Winds: from the ENE (70 degrees) at 18 MPH (16 knots; 8.2 m/s)
Visibility: 10 or more miles (16+ km)
Ceiling: 4100 feet AGL
Clouds: scattered clouds at 2300 feet AGL
scattered clouds at 3300 feet AGL
broken clouds at 4100 feet AGL
Weather: automated observation with no human augmentation;
there may or may not be significant weather present at this time

METAR text: PKWA 182200Z AUTO 10004KT 10SM BKN050 BKN060 29/25 A2983 RMK AO2 T02900245
Conditions at: PKWA (KWAJALEIN/BUCHOL, MH, US) observed 2200 UTC 18 August 2019
Temperature: 29.0°C (84°F)
Dewpoint: 24.5°C (76°F) [RH = 77%]
Pressure (altimeter): 29.83 inches Hg (1010.2 mb)
Winds: from the E (100 degrees) at 5 MPH (4 knots; 2.1 m/s)
Visibility: 10 or more miles (16+ km)
Ceiling: 5000 feet AGL
Clouds: broken clouds at 5000 feet AGL
broken clouds at 6000 feet AGL
Weather: automated observation with no human augmentation;
there may or may not be significant weather present at this time

METAR text: PKWA 182140Z AUTO 08004KT 10SM BKN050 BKN060 29/25 A2983 RMK AO2 T02860246
Conditions at: PKWA (KWAJALEIN/BUCHOL, MH, US) observed 2140 UTC 18 August 2019
Temperature: 28.6°C (83°F)
Dewpoint: 24.6°C (76°F) [RH = 79%]
Pressure (altimeter): 29.83 inches Hg (1010.2 mb)
Winds: from the E (80 degrees) at 5 MPH (4 knots; 2.1 m/s)
Visibility: 10 or more miles (16+ km)
Ceiling: 5000 feet AGL
Clouds: broken clouds at 5000 feet AGL
broken clouds at 6000 feet AGL
Weather: automated observation with no human augmentation;
there may or may not be significant weather present at this time

METAR text: PKWA 182120Z AUTO 08004KT 10SM SCT055 28/25 A2983 RMK AO2 T02830245
Conditions at: PKWA (KWAJALEIN/BUCHOL, MH, US) observed 2120 UTC 18 August 2019
Temperature: 28.3°C (83°F)
Dewpoint: 24.5°C (76°F) [RH = 80%]
Pressure (altimeter): 29.83 inches Hg (1010.2 mb)
Winds: from the E (80 degrees) at 5 MPH (4 knots; 2.1 m/s)
Visibility: 10 or more miles (16+ km)
Ceiling: at least 12,000 feet AGL
Clouds: scattered clouds at 5500 feet AGL
Weather: automated observation with no human augmentation;
there may or may not be significant weather present at this time

METAR text: PKWA 182100Z AUTO 08005KT 10SM CLR 28/25 A2983 RMK AO2 T02820246
Conditions at: PKWA (KWAJALEIN/BUCHOL, MH, US) observed 2100 UTC 18 August 2019
Temperature: 28.2°C (83°F)
Dewpoint: 24.6°C (76°F) [RH = 81%]
Pressure (altimeter): 29.83 inches Hg (1010.2 mb)
Winds: from the E (80 degrees) at 6 MPH (5 knots; 2.6 m/s)
Visibility: 10 or more miles (16+ km)
Ceiling: at least 12,000 feet AGL
Clouds: sky clear below 12,000 feet AGL
Weather: automated observation with no human augmentation;
there may or may not be significant weather present at this time

METAR text: PKWA 182040Z AUTO 06003KT 10SM SCT028 SCT038 28/25 A2983 RMK AO2 LTG DSNT SW T02800248
Conditions at: PKWA (KWAJALEIN/BUCHOL, MH, US) observed 2040 UTC 18 August 2019
Temperature: 28.0°C (82°F)
Dewpoint: 24.8°C (77°F) [RH = 83%]
Pressure (altimeter): 29.83 inches Hg (1010.2 mb)
Winds: from the ENE (60 degrees) at 3 MPH (3 knots; 1.5 m/s)
Visibility: 10 or more miles (16+ km)
Ceiling: at least 12,000 feet AGL
Clouds: scattered clouds at 2800 feet AGL
scattered clouds at 3800 feet AGL
Weather: automated observation with no human augmentation;
there may or may not be significant weather present at this time

METAR text: PKWA 182020Z AUTO 06005KT 10SM SCT017 SCT022 BKN028 28/25 A2982 RMK AO2 T02790249
Conditions at: PKWA (KWAJALEIN/BUCHOL, MH, US) observed 2020 UTC 18 August 2019
Temperature: 27.9°C (82°F)
Dewpoint: 24.9°C (77°F) [RH = 84%]
Pressure (altimeter): 29.82 inches Hg (1009.9 mb)
Winds: from the ENE (60 degrees) at 6 MPH (5 knots; 2.6 m/s)
Visibility: 10 or more miles (16+ km)
Ceiling: 2800 feet AGL
Clouds: scattered clouds at 1700 feet AGL
scattered clouds at 2200 feet AGL
broken clouds at 2800 feet AGL
Weather: automated observation with no human augmentation;
there may or may not be significant weather present at this time

METAR text: PKWA 182000Z AUTO 06015KT 10SM SCT014 BKN018 BKN033 28/25 A2981 RMK AO2 T02790249
Conditions at: PKWA (KWAJALEIN/BUCHOL, MH, US) observed 2000 UTC 18 August 2019
Temperature: 27.9°C (82°F)
Dewpoint: 24.9°C (77°F) [RH = 84%]
Pressure (altimeter): 29.81 inches Hg (1009.6 mb)
Winds: from the ENE (60 degrees) at 17 MPH (15 knots; 7.7 m/s)
Visibility: 10 or more miles (16+ km)
Ceiling: 1800 feet AGL
Clouds: scattered clouds at 1400 feet AGL
broken clouds at 1800 feet AGL
broken clouds at 3300 feet AGL
Weather: automated observation with no human augmentation;
there may or may not be significant weather present at this time

METAR text: PKWA 181940Z AUTO 09004KT 10SM SCT020 SCT029 SCT035 28/25 A2980 RMK AO2 T02800251
Conditions at: PKWA (KWAJALEIN/BUCHOL, MH, US) observed 1940 UTC 18 August 2019
Temperature: 28.0°C (82°F)
Dewpoint: 25.1°C (77°F) [RH = 84%]
Pressure (altimeter): 29.80 inches Hg (1009.2 mb)
Winds: from the E (90 degrees) at 5 MPH (4 knots; 2.1 m/s)
Visibility: 10 or more miles (16+ km)
Ceiling: at least 12,000 feet AGL
Clouds: scattered clouds at 2000 feet AGL
scattered clouds at 2900 feet AGL
scattered clouds at 3500 feet AGL
Weather: automated observation with no human augmentation;
there may or may not be significant weather present at this time

METAR text: PKWA 181920Z AUTO 04005KT 10SM CLR 28/25 A2980 RMK AO2 T02790250
Conditions at: PKWA (KWAJALEIN/BUCHOL, MH, US) observed 1920 UTC 18 August 2019
Temperature: 27.9°C (82°F)
Dewpoint: 25.0°C (77°F) [RH = 84%]
Pressure (altimeter): 29.80 inches Hg (1009.2 mb)
Winds: from the NE (40 degrees) at 6 MPH (5 knots; 2.6 m/s)
Visibility: 10 or more miles (16+ km)
Ceiling: at least 12,000 feet AGL
Clouds: sky clear below 12,000 feet AGL
Weather: automated observation with no human augmentation;
there may or may not be significant weather present at this time

METAR text: PKWA 181900Z AUTO 00000KT 10SM SCT021 SCT029 SCT070 28/25 A2979 RMK AO2 T02790249
Conditions at: PKWA (KWAJALEIN/BUCHOL, MH, US) observed 1900 UTC 18 August 2019
Temperature: 27.9°C (82°F)
Dewpoint: 24.9°C (77°F) [RH = 84%]
Pressure (altimeter): 29.79 inches Hg (1008.9 mb)
Winds: calm
Visibility: 10 or more miles (16+ km)
Ceiling: at least 12,000 feet AGL
Clouds: scattered clouds at 2100 feet AGL
scattered clouds at 2900 feet AGL
scattered clouds at 7000 feet AGL
Weather: automated observation with no human augmentation;
there may or may not be significant weather present at this time

METAR text: PKWA 181840Z AUTO 00000KT 10SM SCT021 SCT070 28/25 A2979 RMK AO2 LTG DSNT SE T02780249
Conditions at: PKWA (KWAJALEIN/BUCHOL, MH, US) observed 1840 UTC 18 August 2019
Temperature: 27.8°C (82°F)
Dewpoint: 24.9°C (77°F) [RH = 84%]
Pressure (altimeter): 29.79 inches Hg (1008.9 mb)
Winds: calm
Visibility: 10 or more miles (16+ km)
Ceiling: at least 12,000 feet AGL
Clouds: scattered clouds at 2100 feet AGL
scattered clouds at 7000 feet AGL
Weather: automated observation with no human augmentation;
there may or may not be significant weather present at this time

METAR text: PKWA 181820Z AUTO 03003KT 10SM SCT023 28/25 A2978 RMK AO2 T02780248
Conditions at: PKWA (KWAJALEIN/BUCHOL, MH, US) observed 1820 UTC 18 August 2019
Temperature: 27.8°C (82°F)
Dewpoint: 24.8°C (77°F) [RH = 84%]
Pressure (altimeter): 29.78 inches Hg (1008.5 mb)
Winds: from the NNE (30 degrees) at 3 MPH (3 knots; 1.5 m/s)
Visibility: 10 or more miles (16+ km)
Ceiling: at least 12,000 feet AGL
Clouds: scattered clouds at 2300 feet AGL
Weather: automated observation with no human augmentation;
there may or may not be significant weather present at this time

METAR text: PKWA 181800Z AUTO 00000KT 10SM CLR 28/25 A2978 RMK AO2 T02770248
Conditions at: PKWA (KWAJALEIN/BUCHOL, MH, US) observed 1800 UTC 18 August 2019
Temperature: 27.7°C (82°F)
Dewpoint: 24.8°C (77°F) [RH = 84%]
Pressure (altimeter): 29.78 inches Hg (1008.5 mb)
Winds: calm
Visibility: 10 or more miles (16+ km)
Ceiling: at least 12,000 feet AGL
Clouds: sky clear below 12,000 feet AGL
Weather: automated observation with no human augmentation;
there may or may not be significant weather present at this time

METAR text: PKWA 181740Z AUTO 02004KT 10SM CLR 28/25 A2978 RMK AO2 T02770247
Conditions at: PKWA (KWAJALEIN/BUCHOL, MH, US) observed 1740 UTC 18 August 2019
Temperature: 27.7°C (82°F)
Dewpoint: 24.7°C (76°F) [RH = 84%]
Pressure (altimeter): 29.78 inches Hg (1008.5 mb)
Winds: from the NNE (20 degrees) at 5 MPH (4 knots; 2.1 m/s)
Visibility: 10 or more miles (16+ km)
Ceiling: at least 12,000 feet AGL
Clouds: sky clear below 12,000 feet AGL
Weather: automated observation with no human augmentation;
there may or may not be significant weather present at this time

METAR text: PKWA 181720Z AUTO 03003KT 10SM CLR 28/25 A2978 RMK AO2 T02770247
Conditions at: PKWA (KWAJALEIN/BUCHOL, MH, US) observed 1720 UTC 18 August 2019
Temperature: 27.7°C (82°F)
Dewpoint: 24.7°C (76°F) [RH = 84%]
Pressure (altimeter): 29.78 inches Hg (1008.5 mb)
Winds: from the NNE (30 degrees) at 3 MPH (3 knots; 1.5 m/s)
Visibility: 10 or more miles (16+ km)
Ceiling: at least 12,000 feet AGL
Clouds: sky clear below 12,000 feet AGL
Weather: automated observation with no human augmentation;
there may or may not be significant weather present at this time

METAR text: PKWA 181700Z AUTO 02003KT 10SM CLR 28/25 A2978 RMK AO2 LTG DSNT SE T02770246
Conditions at: PKWA (KWAJALEIN/BUCHOL, MH, US) observed 1700 UTC 18 August 2019
Temperature: 27.7°C (82°F)
Dewpoint: 24.6°C (76°F) [RH = 83%]
Pressure (altimeter): 29.78 inches Hg (1008.5 mb)
Winds: from the NNE (20 degrees) at 3 MPH (3 knots; 1.5 m/s)
Visibility: 10 or more miles (16+ km)
Ceiling: at least 12,000 feet AGL
Clouds: sky clear below 12,000 feet AGL
Weather: automated observation with no human augmentation;
there may or may not be significant weather present at this time

METAR text: PKWA 181640Z AUTO 00000KT 10SM CLR 28/25 A2978 RMK AO2 T02770246
Conditions at: PKWA (KWAJALEIN/BUCHOL, MH, US) observed 1640 UTC 18 August 2019
Temperature: 27.7°C (82°F)
Dewpoint: 24.6°C (76°F) [RH = 83%]
Pressure (altimeter): 29.78 inches Hg (1008.5 mb)
Winds: calm
Visibility: 10 or more miles (16+ km)
Ceiling: at least 12,000 feet AGL
Clouds: sky clear below 12,000 feet AGL
Weather: automated observation with no human augmentation;
there may or may not be significant weather present at this time

METAR text: PKWA 181620Z AUTO 00000KT 10SM CLR 28/25 A2978 RMK AO2 T02780245
Conditions at: PKWA (KWAJALEIN/BUCHOL, MH, US) observed 1620 UTC 18 August 2019
Temperature: 27.8°C (82°F)
Dewpoint: 24.5°C (76°F) [RH = 82%]
Pressure (altimeter): 29.78 inches Hg (1008.5 mb)
Winds: calm
Visibility: 10 or more miles (16+ km)
Ceiling: at least 12,000 feet AGL
Clouds: sky clear below 12,000 feet AGL
Weather: automated observation with no human augmentation;
there may or may not be significant weather present at this time

METAR text: PKWA 181600Z AUTO 00000KT 10SM CLR 28/25 A2978 RMK AO2 T02780245
Conditions at: PKWA (KWAJALEIN/BUCHOL, MH, US) observed 1600 UTC 18 August 2019
Temperature: 27.8°C (82°F)
Dewpoint: 24.5°C (76°F) [RH = 82%]
Pressure (altimeter): 29.78 inches Hg (1008.5 mb)
Winds: calm
Visibility: 10 or more miles (16+ km)
Ceiling: at least 12,000 feet AGL
Clouds: sky clear below 12,000 feet AGL
Weather: automated observation with no human augmentation;
there may or may not be significant weather present at this time

METAR text: PKWA 181540Z AUTO 36003KT 10SM CLR 28/25 A2978 RMK AO2 T02790245
Conditions at: PKWA (KWAJALEIN/BUCHOL, MH, US) observed 1540 UTC 18 August 2019
Temperature: 27.9°C (82°F)
Dewpoint: 24.5°C (76°F) [RH = 82%]
Pressure (altimeter): 29.78 inches Hg (1008.5 mb)
Winds: from the N (360 degrees) at 3 MPH (3 knots; 1.5 m/s)
Visibility: 10 or more miles (16+ km)
Ceiling: at least 12,000 feet AGL
Clouds: sky clear below 12,000 feet AGL
Weather: automated observation with no human augmentation;
there may or may not be significant weather present at this time

METAR text: PKWA 181520Z AUTO 03003KT 10SM SCT036 28/25 A2978 RMK AO2 T02790245
Conditions at: PKWA (KWAJALEIN/BUCHOL, MH, US) observed 1520 UTC 18 August 2019
Temperature: 27.9°C (82°F)
Dewpoint: 24.5°C (76°F) [RH = 82%]
Pressure (altimeter): 29.78 inches Hg (1008.5 mb)
Winds: from the NNE (30 degrees) at 3 MPH (3 knots; 1.5 m/s)
Visibility: 10 or more miles (16+ km)
Ceiling: at least 12,000 feet AGL
Clouds: scattered clouds at 3600 feet AGL
Weather: automated observation with no human augmentation;
there may or may not be significant weather present at this time

METAR text: PKWA 181500Z AUTO 00000KT 10SM SCT036 28/25 A2979 RMK AO2 T02780245
Conditions at: PKWA (KWAJALEIN/BUCHOL, MH, US) observed 1500 UTC 18 August 2019
Temperature: 27.8°C (82°F)
Dewpoint: 24.5°C (76°F) [RH = 82%]
Pressure (altimeter): 29.79 inches Hg (1008.9 mb)
Winds: calm
Visibility: 10 or more miles (16+ km)
Ceiling: at least 12,000 feet AGL
Clouds: scattered clouds at 3600 feet AGL
Weather: automated observation with no human augmentation;
there may or may not be significant weather present at this time

METAR text: PKWA 181440Z AUTO 00000KT 10SM CLR 28/25 A2979 RMK AO2 T02770245
Conditions at: PKWA (KWAJALEIN/BUCHOL, MH, US) observed 1440 UTC 18 August 2019
Temperature: 27.7°C (82°F)
Dewpoint: 24.5°C (76°F) [RH = 83%]
Pressure (altimeter): 29.79 inches Hg (1008.9 mb)
Winds: calm
Visibility: 10 or more miles (16+ km)
Ceiling: at least 12,000 feet AGL
Clouds: sky clear below 12,000 feet AGL
Weather: automated observation with no human augmentation;
there may or may not be significant weather present at this time

METAR text: PKWA 181420Z AUTO 00000KT 10SM CLR 28/25 A2979 RMK AO2 T02760246
Conditions at: PKWA (KWAJALEIN/BUCHOL, MH, US) observed 1420 UTC 18 August 2019
Temperature: 27.6°C (82°F)
Dewpoint: 24.6°C (76°F) [RH = 84%]
Pressure (altimeter): 29.79 inches Hg (1008.9 mb)
Winds: calm
Visibility: 10 or more miles (16+ km)
Ceiling: at least 12,000 feet AGL
Clouds: sky clear below 12,000 feet AGL
Weather: automated observation with no human augmentation;
there may or may not be significant weather present at this time

METAR text: PKWA 181400Z AUTO 03004KT 10SM CLR 28/25 A2980 RMK AO2 T02750246
Conditions at: PKWA (KWAJALEIN/BUCHOL, MH, US) observed 1400 UTC 18 August 2019
Temperature: 27.5°C (82°F)
Dewpoint: 24.6°C (76°F) [RH = 84%]
Pressure (altimeter): 29.80 inches Hg (1009.2 mb)
Winds: from the NNE (30 degrees) at 5 MPH (4 knots; 2.1 m/s)
Visibility: 10 or more miles (16+ km)
Ceiling: at least 12,000 feet AGL
Clouds: sky clear below 12,000 feet AGL
Weather: automated observation with no human augmentation;
there may or may not be significant weather present at this time

METAR text: PKWA 181340Z AUTO 06003KT 10SM CLR 28/25 A2980 RMK AO2 T02750246
Conditions at: PKWA (KWAJALEIN/BUCHOL, MH, US) observed 1340 UTC 18 August 2019
Temperature: 27.5°C (82°F)
Dewpoint: 24.6°C (76°F) [RH = 84%]
Pressure (altimeter): 29.80 inches Hg (1009.2 mb)
Winds: from the ENE (60 degrees) at 3 MPH (3 knots; 1.5 m/s)
Visibility: 10 or more miles (16+ km)
Ceiling: at least 12,000 feet AGL
Clouds: sky clear below 12,000 feet AGL
Weather: automated observation with no human augmentation;
there may or may not be significant weather present at this time

METAR text: PKWA 181320Z AUTO 06004KT 10SM CLR 28/25 A2982 RMK AO2 T02750246
Conditions at: PKWA (KWAJALEIN/BUCHOL, MH, US) observed 1320 UTC 18 August 2019
Temperature: 27.5°C (82°F)
Dewpoint: 24.6°C (76°F) [RH = 84%]
Pressure (altimeter): 29.82 inches Hg (1009.9 mb)
Winds: from the ENE (60 degrees) at 5 MPH (4 knots; 2.1 m/s)
Visibility: 10 or more miles (16+ km)
Ceiling: at least 12,000 feet AGL
Clouds: sky clear below 12,000 feet AGL
Weather: automated observation with no human augmentation;
there may or may not be significant weather present at this time

METAR text: PKWA 181300Z AUTO 00000KT 10SM CLR 27/25 A2983 RMK AO2 T02740246
Conditions at: PKWA (KWAJALEIN/BUCHOL, MH, US) observed 1300 UTC 18 August 2019
Temperature: 27.4°C (81°F)
Dewpoint: 24.6°C (76°F) [RH = 85%]
Pressure (altimeter): 29.83 inches Hg (1010.2 mb)
Winds: calm
Visibility: 10 or more miles (16+ km)
Ceiling: at least 12,000 feet AGL
Clouds: sky clear below 12,000 feet AGL
Weather: automated observation with no human augmentation;
there may or may not be significant weather present at this time

METAR text: PKWA 181240Z AUTO 00000KT 10SM CLR 27/25 A2983 RMK AO2 T02740246
Conditions at: PKWA (KWAJALEIN/BUCHOL, MH, US) observed 1240 UTC 18 August 2019
Temperature: 27.4°C (81°F)
Dewpoint: 24.6°C (76°F) [RH = 85%]
Pressure (altimeter): 29.83 inches Hg (1010.2 mb)
Winds: calm
Visibility: 10 or more miles (16+ km)
Ceiling: at least 12,000 feet AGL
Clouds: sky clear below 12,000 feet AGL
Weather: automated observation with no human augmentation;
there may or may not be significant weather present at this time

METAR text: PKWA 181220Z AUTO 00000KT 10SM CLR 28/25 A2984 RMK AO2 T02760245
Conditions at: PKWA (KWAJALEIN/BUCHOL, MH, US) observed 1220 UTC 18 August 2019
Temperature: 27.6°C (82°F)
Dewpoint: 24.5°C (76°F) [RH = 83%]
Pressure (altimeter): 29.84 inches Hg (1010.6 mb)
Winds: calm
Visibility: 10 or more miles (16+ km)
Ceiling: at least 12,000 feet AGL
Clouds: sky clear below 12,000 feet AGL
Weather: automated observation with no human augmentation;
there may or may not be significant weather present at this time

METAR text: PKWA 181200Z AUTO 00000KT 10SM CLR 28/25 A2984 RMK AO2 T02780246
Conditions at: PKWA (KWAJALEIN/BUCHOL, MH, US) observed 1200 UTC 18 August 2019
Temperature: 27.8°C (82°F)
Dewpoint: 24.6°C (76°F) [RH = 83%]
Pressure (altimeter): 29.84 inches Hg (1010.6 mb)
Winds: calm
Visibility: 10 or more miles (16+ km)
Ceiling: at least 12,000 feet AGL
Clouds: sky clear below 12,000 feet AGL
Weather: automated observation with no human augmentation;
there may or may not be significant weather present at this time

METAR text: PKWA 181140Z AUTO 00000KT 10SM CLR 28/25 A2984 RMK AO2 T02800246
Conditions at: PKWA (KWAJALEIN/BUCHOL, MH, US) observed 1140 UTC 18 August 2019
Temperature: 28.0°C (82°F)
Dewpoint: 24.6°C (76°F) [RH = 82%]
Pressure (altimeter): 29.84 inches Hg (1010.6 mb)
Winds: calm
Visibility: 10 or more miles (16+ km)
Ceiling: at least 12,000 feet AGL
Clouds: sky clear below 12,000 feet AGL
Weather: automated observation with no human augmentation;
there may or may not be significant weather present at this time

METAR text: PKWA 181120Z AUTO 17004KT 10SM SCT025 SCT050 SCT065 28/25 A2984 RMK AO2 T02830246
Conditions at: PKWA (KWAJALEIN/BUCHOL, MH, US) observed 1120 UTC 18 August 2019
Temperature: 28.3°C (83°F)
Dewpoint: 24.6°C (76°F) [RH = 80%]
Pressure (altimeter): 29.84 inches Hg (1010.6 mb)
Winds: from the S (170 degrees) at 5 MPH (4 knots; 2.1 m/s)
Visibility: 10 or more miles (16+ km)
Ceiling: at least 12,000 feet AGL
Clouds: scattered clouds at 2500 feet AGL
scattered clouds at 5000 feet AGL
scattered clouds at 6500 feet AGL
Weather: automated observation with no human augmentation;
there may or may not be significant weather present at this time

METAR text: PKWA 181100Z AUTO 08005KT 10SM SCT030 SCT050 29/25 A2985 RMK AO2 T02850246
Conditions at: PKWA (KWAJALEIN/BUCHOL, MH, US) observed 1100 UTC 18 August 2019
Temperature: 28.5°C (83°F)
Dewpoint: 24.6°C (76°F) [RH = 79%]
Pressure (altimeter): 29.85 inches Hg (1010.9 mb)
Winds: from the E (80 degrees) at 6 MPH (5 knots; 2.6 m/s)
Visibility: 10 or more miles (16+ km)
Ceiling: at least 12,000 feet AGL
Clouds: scattered clouds at 3000 feet AGL
scattered clouds at 5000 feet AGL
Weather: automated observation with no human augmentation;
there may or may not be significant weather present at this time

METAR text: PKWA 181040Z AUTO 36006KT 10SM CLR 29/25 A2985 RMK AO2 T02870246
Conditions at: PKWA (KWAJALEIN/BUCHOL, MH, US) observed 1040 UTC 18 August 2019
Temperature: 28.7°C (84°F)
Dewpoint: 24.6°C (76°F) [RH = 79%]
Pressure (altimeter): 29.85 inches Hg (1010.9 mb)
Winds: from the N (360 degrees) at 7 MPH (6 knots; 3.1 m/s)
Visibility: 10 or more miles (16+ km)
Ceiling: at least 12,000 feet AGL
Clouds: sky clear below 12,000 feet AGL
Weather: automated observation with no human augmentation;
there may or may not be significant weather present at this time

METAR text: PKWA 181020Z AUTO 00000KT 10SM SCT035 29/25 A2984 RMK AO2 T02880246
Conditions at: PKWA (KWAJALEIN/BUCHOL, MH, US) observed 1020 UTC 18 August 2019
Temperature: 28.8°C (84°F)
Dewpoint: 24.6°C (76°F) [RH = 78%]
Pressure (altimeter): 29.84 inches Hg (1010.6 mb)
Winds: calm
Visibility: 10 or more miles (16+ km)
Ceiling: at least 12,000 feet AGL
Clouds: scattered clouds at 3500 feet AGL
Weather: automated observation with no human augmentation;
there may or may not be significant weather present at this time

METAR text: PKWA 181000Z AUTO 00000KT 10SM CLR 29/25 A2984 RMK AO2 T02880248
Conditions at: PKWA (KWAJALEIN/BUCHOL, MH, US) observed 1000 UTC 18 August 2019
Temperature: 28.8°C (84°F)
Dewpoint: 24.8°C (77°F) [RH = 79%]
Pressure (altimeter): 29.84 inches Hg (1010.6 mb)
Winds: calm
Visibility: 10 or more miles (16+ km)
Ceiling: at least 12,000 feet AGL
Clouds: sky clear below 12,000 feet AGL
Weather: automated observation with no human augmentation;
there may or may not be significant weather present at this time

METAR text: PKWA 180940Z AUTO 00000KT 10SM CLR 29/25 A2984 RMK AO2 T02890249
Conditions at: PKWA (KWAJALEIN/BUCHOL, MH, US) observed 0940 UTC 18 August 2019
Temperature: 28.9°C (84°F)
Dewpoint: 24.9°C (77°F) [RH = 79%]
Pressure (altimeter): 29.84 inches Hg (1010.6 mb)
Winds: calm
Visibility: 10 or more miles (16+ km)
Ceiling: at least 12,000 feet AGL
Clouds: sky clear below 12,000 feet AGL
Weather: automated observation with no human augmentation;
there may or may not be significant weather present at this time

METAR text: PKWA 180920Z AUTO 00000KT 10SM SCT070 29/25 A2983 RMK AO2 T02890248
Conditions at: PKWA (KWAJALEIN/BUCHOL, MH, US) observed 0920 UTC 18 August 2019
Temperature: 28.9°C (84°F)
Dewpoint: 24.8°C (77°F) [RH = 79%]
Pressure (altimeter): 29.83 inches Hg (1010.2 mb)
Winds: calm
Visibility: 10 or more miles (16+ km)
Ceiling: at least 12,000 feet AGL
Clouds: scattered clouds at 7000 feet AGL
Weather: automated observation with no human augmentation;
there may or may not be significant weather present at this time

METAR text: PKWA 180900Z AUTO 00000KT 10SM SCT026 29/25 A2983 RMK AO2 T02890247
Conditions at: PKWA (KWAJALEIN/BUCHOL, MH, US) observed 0900 UTC 18 August 2019
Temperature: 28.9°C (84°F)
Dewpoint: 24.7°C (76°F) [RH = 78%]
Pressure (altimeter): 29.83 inches Hg (1010.2 mb)
Winds: calm
Visibility: 10 or more miles (16+ km)
Ceiling: at least 12,000 feet AGL
Clouds: scattered clouds at 2600 feet AGL
Weather: automated observation with no human augmentation;
there may or may not be significant weather present at this time

METAR text: PKWA 180840Z AUTO 10003KT 10SM SCT019 BKN026 BKN032 29/25 A2984 RMK AO2 T02880245
Conditions at: PKWA (KWAJALEIN/BUCHOL, MH, US) observed 0840 UTC 18 August 2019
Temperature: 28.8°C (84°F)
Dewpoint: 24.5°C (76°F) [RH = 78%]
Pressure (altimeter): 29.84 inches Hg (1010.6 mb)
Winds: from the E (100 degrees) at 3 MPH (3 knots; 1.5 m/s)
Visibility: 10 or more miles (16+ km)
Ceiling: 2600 feet AGL
Clouds: scattered clouds at 1900 feet AGL
broken clouds at 2600 feet AGL
broken clouds at 3200 feet AGL
Weather: automated observation with no human augmentation;
there may or may not be significant weather present at this time

METAR text: PKWA 180820Z AUTO 00000KT 10SM SCT026 SCT032 29/24 A2983 RMK AO2 T02890243
Conditions at: PKWA (KWAJALEIN/BUCHOL, MH, US) observed 0820 UTC 18 August 2019
Temperature: 28.9°C (84°F)
Dewpoint: 24.3°C (76°F) [RH = 76%]
Pressure (altimeter): 29.83 inches Hg (1010.2 mb)
Winds: calm
Visibility: 10 or more miles (16+ km)
Ceiling: at least 12,000 feet AGL
Clouds: scattered clouds at 2600 feet AGL
scattered clouds at 3200 feet AGL
Weather: automated observation with no human augmentation;
there may or may not be significant weather present at this time

METAR text: PKWA 180800Z AUTO 00000KT 10SM CLR 29/24 A2982 RMK AO2 T02900241
Conditions at: PKWA (KWAJALEIN/BUCHOL, MH, US) observed 0800 UTC 18 August 2019
Temperature: 29.0°C (84°F)
Dewpoint: 24.1°C (75°F) [RH = 75%]
Pressure (altimeter): 29.82 inches Hg (1009.9 mb)
Winds: calm
Visibility: 10 or more miles (16+ km)
Ceiling: at least 12,000 feet AGL
Clouds: sky clear below 12,000 feet AGL
Weather: automated observation with no human augmentation;
there may or may not be significant weather present at this time

METAR text: PKWA 180740Z AUTO 00000KT 10SM CLR 29/24 A2981 RMK AO2 T02910241
Conditions at: PKWA (KWAJALEIN/BUCHOL, MH, US) observed 0740 UTC 18 August 2019
Temperature: 29.1°C (84°F)
Dewpoint: 24.1°C (75°F) [RH = 75%]
Pressure (altimeter): 29.81 inches Hg (1009.6 mb)
Winds: calm
Visibility: 10 or more miles (16+ km)
Ceiling: at least 12,000 feet AGL
Clouds: sky clear below 12,000 feet AGL
Weather: automated observation with no human augmentation;
there may or may not be significant weather present at this time

METAR text: PKWA 180720Z AUTO 00000KT 10SM CLR 29/24 A2980 RMK AO2 T02930241
Conditions at: PKWA (KWAJALEIN/BUCHOL, MH, US) observed 0720 UTC 18 August 2019
Temperature: 29.3°C (85°F)
Dewpoint: 24.1°C (75°F) [RH = 74%]
Pressure (altimeter): 29.80 inches Hg (1009.2 mb)
Winds: calm
Visibility: 10 or more miles (16+ km)
Ceiling: at least 12,000 feet AGL
Clouds: sky clear below 12,000 feet AGL
Weather: automated observation with no human augmentation;
there may or may not be significant weather present at this time

METAR text: PKWA 180700Z AUTO 00000KT 10SM CLR 30/24 A2980 RMK AO2 T02950242
Conditions at: PKWA (KWAJALEIN/BUCHOL, MH, US) observed 0700 UTC 18 August 2019
Temperature: 29.5°C (85°F)
Dewpoint: 24.2°C (76°F) [RH = 73%]
Pressure (altimeter): 29.80 inches Hg (1009.2 mb)
Winds: calm
Visibility: 10 or more miles (16+ km)
Ceiling: at least 12,000 feet AGL
Clouds: sky clear below 12,000 feet AGL
Weather: automated observation with no human augmentation;
there may or may not be significant weather present at this time

METAR text: PKWA 180640Z AUTO 00000KT 10SM CLR 30/24 A2980 RMK AO2 T02970243
Conditions at: PKWA (KWAJALEIN/BUCHOL, MH, US) observed 0640 UTC 18 August 2019
Temperature: 29.7°C (85°F)
Dewpoint: 24.3°C (76°F) [RH = 73%]
Pressure (altimeter): 29.80 inches Hg (1009.2 mb)
Winds: calm
Visibility: 10 or more miles (16+ km)
Ceiling: at least 12,000 feet AGL
Clouds: sky clear below 12,000 feet AGL
Weather: automated observation with no human augmentation;
there may or may not be significant weather present at this time

METAR text: PKWA 180620Z AUTO 00000KT 10SM SCT025 30/24 A2979 RMK AO2 T02980243
Conditions at: PKWA (KWAJALEIN/BUCHOL, MH, US) observed 0620 UTC 18 August 2019
Temperature: 29.8°C (86°F)
Dewpoint: 24.3°C (76°F) [RH = 72%]
Pressure (altimeter): 29.79 inches Hg (1008.9 mb)
Winds: calm
Visibility: 10 or more miles (16+ km)
Ceiling: at least 12,000 feet AGL
Clouds: scattered clouds at 2500 feet AGL
Weather: automated observation with no human augmentation;
there may or may not be significant weather present at this time

METAR text: PKWA 180600Z AUTO 00000KT 10SM BKN025 30/24 A2978 RMK AO2 T03000243
Conditions at: PKWA (KWAJALEIN/BUCHOL, MH, US) observed 0600 UTC 18 August 2019
Temperature: 30.0°C (86°F)
Dewpoint: 24.3°C (76°F) [RH = 72%]
Pressure (altimeter): 29.78 inches Hg (1008.5 mb)
Winds: calm
Visibility: 10 or more miles (16+ km)
Ceiling: 2500 feet AGL
Clouds: broken clouds at 2500 feet AGL
Weather: automated observation with no human augmentation;
there may or may not be significant weather present at this time

METAR text: PKWA 180540Z AUTO 00000KT 10SM SCT025 30/24 A2978 RMK AO2 T03010244
Conditions at: PKWA (KWAJALEIN/BUCHOL, MH, US) observed 0540 UTC 18 August 2019
Temperature: 30.1°C (86°F)
Dewpoint: 24.4°C (76°F) [RH = 72%]
Pressure (altimeter): 29.78 inches Hg (1008.5 mb)
Winds: calm
Visibility: 10 or more miles (16+ km)
Ceiling: at least 12,000 feet AGL
Clouds: scattered clouds at 2500 feet AGL
Weather: automated observation with no human augmentation;
there may or may not be significant weather present at this time

METAR text: PKWA 180520Z AUTO 00000KT 10SM SCT025 30/24 A2977 RMK AO2 T03020242
Conditions at: PKWA (KWAJALEIN/BUCHOL, MH, US) observed 0520 UTC 18 August 2019
Temperature: 30.2°C (86°F)
Dewpoint: 24.2°C (76°F) [RH = 70%]
Pressure (altimeter): 29.77 inches Hg (1008.2 mb)
Winds: calm
Visibility: 10 or more miles (16+ km)
Ceiling: at least 12,000 feet AGL
Clouds: scattered clouds at 2500 feet AGL
Weather: automated observation with no human augmentation;
there may or may not be significant weather present at this time

METAR text: PKWA 180500Z AUTO 00000KT 10SM CLR 30/24 A2978 RMK AO2 T03030242
Conditions at: PKWA (KWAJALEIN/BUCHOL, MH, US) observed 0500 UTC 18 August 2019
Temperature: 30.3°C (87°F)
Dewpoint: 24.2°C (76°F) [RH = 70%]
Pressure (altimeter): 29.78 inches Hg (1008.5 mb)
Winds: calm
Visibility: 10 or more miles (16+ km)
Ceiling: at least 12,000 feet AGL
Clouds: sky clear below 12,000 feet AGL
Weather: automated observation with no human augmentation;
there may or may not be significant weather present at this time

METAR text: PKWA 180440Z AUTO 00000KT 10SM CLR 30/24 A2978 RMK AO2 T03040242
Conditions at: PKWA (KWAJALEIN/BUCHOL, MH, US) observed 0440 UTC 18 August 2019
Temperature: 30.4°C (87°F)
Dewpoint: 24.2°C (76°F) [RH = 70%]
Pressure (altimeter): 29.78 inches Hg (1008.5 mb)
Winds: calm
Visibility: 10 or more miles (16+ km)
Ceiling: at least 12,000 feet AGL
Clouds: sky clear below 12,000 feet AGL
Weather: automated observation with no human augmentation;
there may or may not be significant weather present at this time

METAR text: PKWA 180420Z AUTO 00000KT 10SM CLR 31/24 A2978 RMK AO2 T03050243
Conditions at: PKWA (KWAJALEIN/BUCHOL, MH, US) observed 0420 UTC 18 August 2019
Temperature: 30.5°C (87°F)
Dewpoint: 24.3°C (76°F) [RH = 70%]
Pressure (altimeter): 29.78 inches Hg (1008.5 mb)
Winds: calm
Visibility: 10 or more miles (16+ km)
Ceiling: at least 12,000 feet AGL
Clouds: sky clear below 12,000 feet AGL
Weather: automated observation with no human augmentation;
there may or may not be significant weather present at this time

METAR text: PKWA 180400Z AUTO 00000KT 10SM CLR 31/24 A2978 RMK AO2 T03060244
Conditions at: PKWA (KWAJALEIN/BUCHOL, MH, US) observed 0400 UTC 18 August 2019
Temperature: 30.6°C (87°F)
Dewpoint: 24.4°C (76°F) [RH = 70%]
Pressure (altimeter): 29.78 inches Hg (1008.5 mb)
Winds: calm
Visibility: 10 or more miles (16+ km)
Ceiling: at least 12,000 feet AGL
Clouds: sky clear below 12,000 feet AGL
Weather: automated observation with no human augmentation;
there may or may not be significant weather present at this time

METAR text: PKWA 180340Z AUTO 00000KT 10SM SCT025 31/25 A2978 RMK AO2 T03080245
Conditions at: PKWA (KWAJALEIN/BUCHOL, MH, US) observed 0340 UTC 18 August 2019
Temperature: 30.8°C (87°F)
Dewpoint: 24.5°C (76°F) [RH = 69%]
Pressure (altimeter): 29.78 inches Hg (1008.5 mb)
Winds: calm
Visibility: 10 or more miles (16+ km)
Ceiling: at least 12,000 feet AGL
Clouds: scattered clouds at 2500 feet AGL
Weather: automated observation with no human augmentation;
there may or may not be significant weather present at this time

METAR text: PKWA 180320Z AUTO 00000KT 10SM CLR 31/25 A2979 RMK AO2 T03090246
Conditions at: PKWA (KWAJALEIN/BUCHOL, MH, US) observed 0320 UTC 18 August 2019
Temperature: 30.9°C (88°F)
Dewpoint: 24.6°C (76°F) [RH = 69%]
Pressure (altimeter): 29.79 inches Hg (1008.9 mb)
Winds: calm
Visibility: 10 or more miles (16+ km)
Ceiling: at least 12,000 feet AGL
Clouds: sky clear below 12,000 feet AGL
Weather: automated observation with no human augmentation;
there may or may not be significant weather present at this time

METAR text: PKWA 180300Z AUTO 00000KT 10SM CLR 31/25 A2979 RMK AO2 T03090247
Conditions at: PKWA (KWAJALEIN/BUCHOL, MH, US) observed 0300 UTC 18 August 2019
Temperature: 30.9°C (88°F)
Dewpoint: 24.7°C (76°F) [RH = 70%]
Pressure (altimeter): 29.79 inches Hg (1008.9 mb)
Winds: calm
Visibility: 10 or more miles (16+ km)
Ceiling: at least 12,000 feet AGL
Clouds: sky clear below 12,000 feet AGL
Weather: automated observation with no human augmentation;
there may or may not be significant weather present at this time

METAR text: PKWA 180240Z AUTO 00000KT 10SM CLR 31/25 A2980 RMK AO2 T03090247
Conditions at: PKWA (KWAJALEIN/BUCHOL, MH, US) observed 0240 UTC 18 August 2019
Temperature: 30.9°C (88°F)
Dewpoint: 24.7°C (76°F) [RH = 70%]
Pressure (altimeter): 29.80 inches Hg (1009.2 mb)
Winds: calm
Visibility: 10 or more miles (16+ km)
Ceiling: at least 12,000 feet AGL
Clouds: sky clear below 12,000 feet AGL
Weather: automated observation with no human augmentation;
there may or may not be significant weather present at this time

METAR text: PKWA 180220Z AUTO 00000KT 10SM CLR 31/25 A2980 RMK AO2 T03080247
Conditions at: PKWA (KWAJALEIN/BUCHOL, MH, US) observed 0220 UTC 18 August 2019
Temperature: 30.8°C (87°F)
Dewpoint: 24.7°C (76°F) [RH = 70%]
Pressure (altimeter): 29.80 inches Hg (1009.2 mb)
Winds: calm
Visibility: 10 or more miles (16+ km)
Ceiling: at least 12,000 feet AGL
Clouds: sky clear below 12,000 feet AGL
Weather: automated observation with no human augmentation;
there may or may not be significant weather present at this time

METAR text: PKWA 180200Z AUTO 00000KT 10SM CLR 31/25 A2981 RMK AO2 T03080248
Conditions at: PKWA (KWAJALEIN/BUCHOL, MH, US) observed 0200 UTC 18 August 2019
Temperature: 30.8°C (87°F)
Dewpoint: 24.8°C (77°F) [RH = 70%]
Pressure (altimeter): 29.81 inches Hg (1009.6 mb)
Winds: calm
Visibility: 10 or more miles (16+ km)
Ceiling: at least 12,000 feet AGL
Clouds: sky clear below 12,000 feet AGL
Weather: automated observation with no human augmentation;
there may or may not be significant weather present at this time

METAR text: PKWA 180140Z AUTO 15003KT 10SM CLR 31/25 A2981 RMK AO2 T03060248
Conditions at: PKWA (KWAJALEIN/BUCHOL, MH, US) observed 0140 UTC 18 August 2019
Temperature: 30.6°C (87°F)
Dewpoint: 24.8°C (77°F) [RH = 71%]
Pressure (altimeter): 29.81 inches Hg (1009.6 mb)
Winds: from the SSE (150 degrees) at 3 MPH (3 knots; 1.5 m/s)
Visibility: 10 or more miles (16+ km)
Ceiling: at least 12,000 feet AGL
Clouds: sky clear below 12,000 feet AGL
Weather: automated observation with no human augmentation;
there may or may not be significant weather present at this time

METAR text: PKWA 180120Z AUTO 00000KT 10SM CLR 31/25 A2982 RMK AO2 T03050249
Conditions at: PKWA (KWAJALEIN/BUCHOL, MH, US) observed 0120 UTC 18 August 2019
Temperature: 30.5°C (87°F)
Dewpoint: 24.9°C (77°F) [RH = 72%]
Pressure (altimeter): 29.82 inches Hg (1009.9 mb)
Winds: calm
Visibility: 10 or more miles (16+ km)
Ceiling: at least 12,000 feet AGL
Clouds: sky clear below 12,000 feet AGL
Weather: automated observation with no human augmentation;
there may or may not be significant weather present at this time

METAR text: PKWA 180100Z AUTO 00000KT 10SM CLR 31/25 A2982 RMK AO2 T03050250
Conditions at: PKWA (KWAJALEIN/BUCHOL, MH, US) observed 0100 UTC 18 August 2019
Temperature: 30.5°C (87°F)
Dewpoint: 25.0°C (77°F) [RH = 73%]
Pressure (altimeter): 29.82 inches Hg (1009.9 mb)
Winds: calm
Visibility: 10 or more miles (16+ km)
Ceiling: at least 12,000 feet AGL
Clouds: sky clear below 12,000 feet AGL
Weather: automated observation with no human augmentation;
there may or may not be significant weather present at this time

METAR text: PKWA 180040Z AUTO 00000KT 10SM SCT019 30/25 A2983 RMK AO2 T03040251
Conditions at: PKWA (KWAJALEIN/BUCHOL, MH, US) observed 0040 UTC 18 August 2019
Temperature: 30.4°C (87°F)
Dewpoint: 25.1°C (77°F) [RH = 73%]
Pressure (altimeter): 29.83 inches Hg (1010.2 mb)
Winds: calm
Visibility: 10 or more miles (16+ km)
Ceiling: at least 12,000 feet AGL
Clouds: scattered clouds at 1900 feet AGL
Weather: automated observation with no human augmentation;
there may or may not be significant weather present at this time

METAR text: PKWA 180020Z AUTO 00000KT 10SM SCT019 30/25 A2984 RMK AO2 T03030252
Conditions at: PKWA (KWAJALEIN/BUCHOL, MH, US) observed 0020 UTC 18 August 2019
Temperature: 30.3°C (87°F)
Dewpoint: 25.2°C (77°F) [RH = 74%]
Pressure (altimeter): 29.84 inches Hg (1010.6 mb)
Winds: calm
Visibility: 10 or more miles (16+ km)
Ceiling: at least 12,000 feet AGL
Clouds: scattered clouds at 1900 feet AGL
Weather: automated observation with no human augmentation;
there may or may not be significant weather present at this time

METAR text: PKWA 180000Z AUTO 00000KT 10SM CLR 30/25 A2985 RMK AO2 T03020251
Conditions at: PKWA (KWAJALEIN/BUCHOL, MH, US) observed 0000 UTC 18 August 2019
Temperature: 30.2°C (86°F)
Dewpoint: 25.1°C (77°F) [RH = 74%]
Pressure (altimeter): 29.85 inches Hg (1010.9 mb)
Winds: calm
Visibility: 10 or more miles (16+ km)
Ceiling: at least 12,000 feet AGL
Clouds: sky clear below 12,000 feet AGL
Weather: automated observation with no human augmentation;
there may or may not be significant weather present at this time

METAR text: PKWA 172340Z AUTO 00000KT 10SM CLR 30/25 A2985 RMK AO2 T03010251
Conditions at: PKWA (KWAJALEIN/BUCHOL, MH, US) observed 2340 UTC 17 August 2019
Temperature: 30.1°C (86°F)
Dewpoint: 25.1°C (77°F) [RH = 75%]
Pressure (altimeter): 29.85 inches Hg (1010.9 mb)
Winds: calm
Visibility: 10 or more miles (16+ km)
Ceiling: at least 12,000 feet AGL
Clouds: sky clear below 12,000 feet AGL
Weather: automated observation with no human augmentation;
there may or may not be significant weather present at this time

METAR text: PKWA 172320Z AUTO 00000KT 10SM CLR 30/25 A2985 RMK AO2 T03000252
Conditions at: PKWA (KWAJALEIN/BUCHOL, MH, US) observed 2320 UTC 17 August 2019
Temperature: 30.0°C (86°F)
Dewpoint: 25.2°C (77°F) [RH = 76%]
Pressure (altimeter): 29.85 inches Hg (1010.9 mb)
Winds: calm
Visibility: 10 or more miles (16+ km)
Ceiling: at least 12,000 feet AGL
Clouds: sky clear below 12,000 feet AGL
Weather: automated observation with no human augmentation;
there may or may not be significant weather present at this time

METAR text: PKWA 172300Z AUTO 16003KT 10SM CLR 30/25 A2984 RMK AO2 T02980253
Conditions at: PKWA (KWAJALEIN/BUCHOL, MH, US) observed 2300 UTC 17 August 2019
Temperature: 29.8°C (86°F)
Dewpoint: 25.3°C (78°F) [RH = 77%]
Pressure (altimeter): 29.84 inches Hg (1010.6 mb)
Winds: from the SSE (160 degrees) at 3 MPH (3 knots; 1.5 m/s)
Visibility: 10 or more miles (16+ km)
Ceiling: at least 12,000 feet AGL
Clouds: sky clear below 12,000 feet AGL
Weather: automated observation with no human augmentation;
there may or may not be significant weather present at this time

METAR text: PKWA 172240Z AUTO 00000KT 10SM CLR 30/25 A2984 RMK AO2 T02960254
Conditions at: PKWA (KWAJALEIN/BUCHOL, MH, US) observed 2240 UTC 17 August 2019
Temperature: 29.6°C (85°F)
Dewpoint: 25.4°C (78°F) [RH = 78%]
Pressure (altimeter): 29.84 inches Hg (1010.6 mb)
Winds: calm
Visibility: 10 or more miles (16+ km)
Ceiling: at least 12,000 feet AGL
Clouds: sky clear below 12,000 feet AGL
Weather: automated observation with no human augmentation;
there may or may not be significant weather present at this time

METAR text: PKWA 172220Z AUTO 00000KT 10SM CLR 29/26 A2985 RMK AO2 T02940255
Conditions at: PKWA (KWAJALEIN/BUCHOL, MH, US) observed 2220 UTC 17 August 2019
Temperature: 29.4°C (85°F)
Dewpoint: 25.5°C (78°F) [RH = 80%]
Pressure (altimeter): 29.85 inches Hg (1010.9 mb)
Winds: calm
Visibility: 10 or more miles (16+ km)
Ceiling: at least 12,000 feet AGL
Clouds: sky clear below 12,000 feet AGL
Weather: automated observation with no human augmentation;
there may or may not be significant weather present at this time

METAR text: PKWA 172200Z AUTO 00000KT 10SM CLR 29/26 A2986 RMK AO2 T02920256
Conditions at: PKWA (KWAJALEIN/BUCHOL, MH, US) observed 2200 UTC 17 August 2019
Temperature: 29.2°C (85°F)
Dewpoint: 25.6°C (78°F) [RH = 81%]
Pressure (altimeter): 29.86 inches Hg (1011.3 mb)
Winds: calm
Visibility: 10 or more miles (16+ km)
Ceiling: at least 12,000 feet AGL
Clouds: sky clear below 12,000 feet AGL
Weather: automated observation with no human augmentation;
there may or may not be significant weather present at this time

METAR text: PKWA 172140Z AUTO 14003KT 10SM CLR 29/26 A2986 RMK AO2 T02900258
Conditions at: PKWA (KWAJALEIN/BUCHOL, MH, US) observed 2140 UTC 17 August 2019
Temperature: 29.0°C (84°F)
Dewpoint: 25.8°C (78°F) [RH = 83%]
Pressure (altimeter): 29.86 inches Hg (1011.3 mb)
Winds: from the SE (140 degrees) at 3 MPH (3 knots; 1.5 m/s)
Visibility: 10 or more miles (16+ km)
Ceiling: at least 12,000 feet AGL
Clouds: sky clear below 12,000 feet AGL
Weather: automated observation with no human augmentation;
there may or may not be significant weather present at this time

METAR text: PKWA 172120Z AUTO 18003KT 10SM CLR 29/26 A2985 RMK AO2 T02870261
Conditions at: PKWA (KWAJALEIN/BUCHOL, MH, US) observed 2120 UTC 17 August 2019
Temperature: 28.7°C (84°F)
Dewpoint: 26.1°C (79°F) [RH = 86%]
Pressure (altimeter): 29.85 inches Hg (1010.9 mb)
Winds: from the S (180 degrees) at 3 MPH (3 knots; 1.5 m/s)
Visibility: 10 or more miles (16+ km)
Ceiling: at least 12,000 feet AGL
Clouds: sky clear below 12,000 feet AGL
Weather: automated observation with no human augmentation;
there may or may not be significant weather present at this time

METAR text: PKWA 172100Z AUTO 00000KT 10SM CLR 29/26 A2985 RMK AO2 T02850263
Conditions at: PKWA (KWAJALEIN/BUCHOL, MH, US) observed 2100 UTC 17 August 2019
Temperature: 28.5°C (83°F)
Dewpoint: 26.3°C (79°F) [RH = 88%]
Pressure (altimeter): 29.85 inches Hg (1010.9 mb)
Winds: calm
Visibility: 10 or more miles (16+ km)
Ceiling: at least 12,000 feet AGL
Clouds: sky clear below 12,000 feet AGL
Weather: automated observation with no human augmentation;
there may or may not be significant weather present at this time

METAR text: PKWA 172040Z AUTO 00000KT 10SM CLR 28/27 A2983 RMK AO2 P0001 T02820266
Conditions at: PKWA (KWAJALEIN/BUCHOL, MH, US) observed 2040 UTC 17 August 2019
Temperature: 28.2°C (83°F)
Dewpoint: 26.6°C (80°F) [RH = 91%]
Pressure (altimeter): 29.83 inches Hg (1010.2 mb)
Winds: calm
Visibility: 10 or more miles (16+ km)
Ceiling: at least 12,000 feet AGL
Clouds: sky clear below 12,000 feet AGL
Weather: automated observation with no human augmentation;
there may or may not be significant weather present at this time

METAR text: PKWA 172020Z AUTO 14003KT 10SM CLR 28/27 A2983 RMK AO2 P0001 T02780267
Conditions at: PKWA (KWAJALEIN/BUCHOL, MH, US) observed 2020 UTC 17 August 2019
Temperature: 27.8°C (82°F)
Dewpoint: 26.7°C (80°F) [RH = 94%]
Pressure (altimeter): 29.83 inches Hg (1010.2 mb)
Winds: from the SE (140 degrees) at 3 MPH (3 knots; 1.5 m/s)
Visibility: 10 or more miles (16+ km)
Ceiling: at least 12,000 feet AGL
Clouds: sky clear below 12,000 feet AGL
Weather: automated observation with no human augmentation;
there may or may not be significant weather present at this time

METAR text: PKWA 172000Z AUTO 00000KT 10SM CLR 28/27 A2982 RMK AO2 T02750267
Conditions at: PKWA (KWAJALEIN/BUCHOL, MH, US) observed 2000 UTC 17 August 2019
Temperature: 27.5°C (82°F)
Dewpoint: 26.7°C (80°F) [RH = 95%]
Pressure (altimeter): 29.82 inches Hg (1009.9 mb)
Winds: calm
Visibility: 10 or more miles (16+ km)
Ceiling: at least 12,000 feet AGL
Clouds: sky clear below 12,000 feet AGL
Weather: automated observation with no human augmentation;
there may or may not be significant weather present at this time

METAR text: PKWA 171940Z AUTO 13003KT 10SM CLR 27/27 A2981 RMK AO2 T02730267
Conditions at: PKWA (KWAJALEIN/BUCHOL, MH, US) observed 1940 UTC 17 August 2019
Temperature: 27.3°C (81°F)
Dewpoint: 26.7°C (80°F) [RH = 97%]
Pressure (altimeter): 29.81 inches Hg (1009.6 mb)
Winds: from the SE (130 degrees) at 3 MPH (3 knots; 1.5 m/s)
Visibility: 10 or more miles (16+ km)
Ceiling: at least 12,000 feet AGL
Clouds: sky clear below 12,000 feet AGL
Weather: automated observation with no human augmentation;
there may or may not be significant weather present at this time

METAR text: PKWA 171920Z AUTO 00000KT 10SM CLR 27/27 A2980 RMK AO2 T02720266
Conditions at: PKWA (KWAJALEIN/BUCHOL, MH, US) observed 1920 UTC 17 August 2019
Temperature: 27.2°C (81°F)
Dewpoint: 26.6°C (80°F) [RH = 97%]
Pressure (altimeter): 29.80 inches Hg (1009.2 mb)
Winds: calm
Visibility: 10 or more miles (16+ km)
Ceiling: at least 12,000 feet AGL
Clouds: sky clear below 12,000 feet AGL
Weather: automated observation with no human augmentation;
there may or may not be significant weather present at this time

METAR text: PKWA 171900Z AUTO 00000KT 10SM CLR 27/27 A2980 RMK AO2 T02710265
Conditions at: PKWA (KWAJALEIN/BUCHOL, MH, US) observed 1900 UTC 17 August 2019
Temperature: 27.1°C (81°F)
Dewpoint: 26.5°C (80°F) [RH = 97%]
Pressure (altimeter): 29.80 inches Hg (1009.2 mb)
Winds: calm
Visibility: 10 or more miles (16+ km)
Ceiling: at least 12,000 feet AGL
Clouds: sky clear below 12,000 feet AGL
Weather: automated observation with no human augmentation;
there may or may not be significant weather present at this time

METAR text: PKWA 171840Z AUTO 00000KT 10SM CLR 27/27 A2980 RMK AO2 T02710265
Conditions at: PKWA (KWAJALEIN/BUCHOL, MH, US) observed 1840 UTC 17 August 2019
Temperature: 27.1°C (81°F)
Dewpoint: 26.5°C (80°F) [RH = 97%]
Pressure (altimeter): 29.80 inches Hg (1009.2 mb)
Winds: calm
Visibility: 10 or more miles (16+ km)
Ceiling: at least 12,000 feet AGL
Clouds: sky clear below 12,000 feet AGL
Weather: automated observation with no human augmentation;
there may or may not be significant weather present at this time

METAR text: PKWA 171820Z AUTO 00000KT 10SM CLR 27/26 A2980 RMK AO2 T02710264
Conditions at: PKWA (KWAJALEIN/BUCHOL, MH, US) observed 1820 UTC 17 August 2019
Temperature: 27.1°C (81°F)
Dewpoint: 26.4°C (80°F) [RH = 96%]
Pressure (altimeter): 29.80 inches Hg (1009.2 mb)
Winds: calm
Visibility: 10 or more miles (16+ km)
Ceiling: at least 12,000 feet AGL
Clouds: sky clear below 12,000 feet AGL
Weather: automated observation with no human augmentation;
there may or may not be significant weather present at this time

METAR text: PKWA 171800Z AUTO 00000KT 10SM CLR 27/26 A2981 RMK AO2 T02700264
Conditions at: PKWA (KWAJALEIN/BUCHOL, MH, US) observed 1800 UTC 17 August 2019
Temperature: 27.0°C (81°F)
Dewpoint: 26.4°C (80°F) [RH = 97%]
Pressure (altimeter): 29.81 inches Hg (1009.6 mb)
Winds: calm
Visibility: 10 or more miles (16+ km)
Ceiling: at least 12,000 feet AGL
Clouds: sky clear below 12,000 feet AGL
Weather: automated observation with no human augmentation;
there may or may not be significant weather present at this time

METAR text: PKWA 171740Z AUTO 19005KT 10SM CLR 27/26 A2981 RMK AO2 T02690264
Conditions at: PKWA (KWAJALEIN/BUCHOL, MH, US) observed 1740 UTC 17 August 2019
Temperature: 26.9°C (80°F)
Dewpoint: 26.4°C (80°F) [RH = 97%]
Pressure (altimeter): 29.81 inches Hg (1009.6 mb)
Winds: from the S (190 degrees) at 6 MPH (5 knots; 2.6 m/s)
Visibility: 10 or more miles (16+ km)
Ceiling: at least 12,000 feet AGL
Clouds: sky clear below 12,000 feet AGL
Weather: automated observation with no human augmentation;
there may or may not be significant weather present at this time

METAR text: PKWA 171720Z AUTO 19005KT 10SM CLR 27/27 A2981 RMK AO2 T02690265
Conditions at: PKWA (KWAJALEIN/BUCHOL, MH, US) observed 1720 UTC 17 August 2019
Temperature: 26.9°C (80°F)
Dewpoint: 26.5°C (80°F) [RH = 98%]
Pressure (altimeter): 29.81 inches Hg (1009.6 mb)
Winds: from the S (190 degrees) at 6 MPH (5 knots; 2.6 m/s)
Visibility: 10 or more miles (16+ km)
Ceiling: at least 12,000 feet AGL
Clouds: sky clear below 12,000 feet AGL
Weather: automated observation with no human augmentation;
there may or may not be significant weather present at this time

METAR text: PKWA 171700Z AUTO 16004KT 10SM CLR 27/27 A2981 RMK AO2 T02680266
Conditions at: PKWA (KWAJALEIN/BUCHOL, MH, US) observed 1700 UTC 17 August 2019
Temperature: 26.8°C (80°F)
Dewpoint: 26.6°C (80°F) [RH = 99%]
Pressure (altimeter): 29.81 inches Hg (1009.6 mb)
Winds: from the SSE (160 degrees) at 5 MPH (4 knots; 2.1 m/s)
Visibility: 10 or more miles (16+ km)
Ceiling: at least 12,000 feet AGL
Clouds: sky clear below 12,000 feet AGL
Weather: automated observation with no human augmentation;
there may or may not be significant weather present at this time

METAR text: PKWA 171640Z AUTO 18004KT 10SM CLR 27/27 A2980 RMK AO2 T02680266
Conditions at: PKWA (KWAJALEIN/BUCHOL, MH, US) observed 1640 UTC 17 August 2019
Temperature: 26.8°C (80°F)
Dewpoint: 26.6°C (80°F) [RH = 99%]
Pressure (altimeter): 29.80 inches Hg (1009.2 mb)
Winds: from the S (180 degrees) at 5 MPH (4 knots; 2.1 m/s)
Visibility: 10 or more miles (16+ km)
Ceiling: at least 12,000 feet AGL
Clouds: sky clear below 12,000 feet AGL
Weather: automated observation with no human augmentation;
there may or may not be significant weather present at this time

METAR text: PKWA 171620Z AUTO 18004KT 10SM SCT030 SCT037 27/27 A2981 RMK AO2 T02690266
Conditions at: PKWA (KWAJALEIN/BUCHOL, MH, US) observed 1620 UTC 17 August 2019
Temperature: 26.9°C (80°F)
Dewpoint: 26.6°C (80°F) [RH = 98%]
Pressure (altimeter): 29.81 inches Hg (1009.6 mb)
Winds: from the S (180 degrees) at 5 MPH (4 knots; 2.1 m/s)
Visibility: 10 or more miles (16+ km)
Ceiling: at least 12,000 feet AGL
Clouds: scattered clouds at 3000 feet AGL
scattered clouds at 3700 feet AGL
Weather: automated observation with no human augmentation;
there may or may not be significant weather present at this time

Forecast for: PKWA (KWAJALEIN/BUCHOL, MH, US)
Text: PKWA 182320Z 1900/1924 09008KT P6SM VCSH SCT018 SCT030 BKN050
Forecast period: 0000 UTC 19 August 2019 to 0000 UTC 20 August 2019
Forecast type: FROM: standard forecast or significant change
Winds: from the E (90 degrees) at 9 MPH (8 knots; 4.1 m/s)
Visibility: 6 or more miles 10+ km)
Ceiling: 5000 feet AGL
Clouds: scattered clouds at 1800 feet AGL
scattered clouds at 3000 feet AGL
broken clouds at 5000 feet AGL
Weather: VCSH  (showers in vicinity)
Text: TEMPO 1900/1904 4SM SHRA SCT015 BKN025 BKN100
Forecast period: 0000 to 0400 UTC 19 August 2019
Forecast type: TEMPORARY: The following changes expected for less than half the time period
Visibility: 4 miles (6 km)
Ceiling: 2500 feet AGL
Clouds: scattered clouds at 1500 feet AGL
broken clouds at 2500 feet AGL
broken clouds at 10000 feet AGL
Weather: SHRA  (rain showers)